WetterOnline ( https://www.wetteronline.de )

Wetter aktuell Stuttgart

Aktuelles Wetter: Schnarrenberg/Stuttgart (315m)

6-stündlich | Neueste Meldungen
Ortszeit Temperatur Wetter
Do, 26.11. 1:00 -0.3° C leicht bewölkt
Mi, 25.11. 19:00 3.1° C wolkenlos
Mi, 25.11. 13:00 5.5° C wolkenlos
Mi, 25.11. 7:00 -1.6° C leicht bewölkt
Mi, 25.11. 1:00 0.9° C fast wolkenlos
Di, 24.11. 19:00 4.2° C wolkenlos
Di, 24.11. 13:00 6.3° C bedeckt
Di, 24.11. 7:00 1.8° C Nebel
Ortszeit Temperatur Wetter
Do, 26.11. 6:00 -0.7° C bedeckt
Do, 26.11. 5:30 -0.7° C leicht bewölkt
Do, 26.11. 5:20 -0.7° C leicht bewölkt
Do, 26.11. 5:10 -0.9° C wolkenlos
Do, 26.11. 5:00 -0.7° C wolkenlos
Do, 26.11. 4:50 -0.7° C wolkenlos
Do, 26.11. 4:30 -0.6° C leicht bewölkt
Do, 26.11. 4:00 -0.5° C bedeckt
Do, 26.11. 3:30 -0.6° C bewölkt
Do, 26.11. 3:00 -0.5° C wolkig
Do, 26.11. 2:30 -0.6° C bewölkt
Ortszeit Relative Feuchte Sichtweite
Do, 26.11. 1:00 91% 16 km
Mi, 25.11. 19:00 89% 22 km
Mi, 25.11. 13:00 71% 35 km
Mi, 25.11. 7:00 97% 3.5 km
Mi, 25.11. 1:00 94% 11 km
Di, 24.11. 19:00 86% 27 km
Di, 24.11. 13:00 85% 23 km
Di, 24.11. 7:00 100% 100 m
Ortszeit Relative Feuchte Sichtweite
Do, 26.11. 6:00 89% 20 km
Do, 26.11. 5:30 90% 21 km
Do, 26.11. 5:20 90% -
Do, 26.11. 5:10 90% -
Do, 26.11. 5:00 90% 20 km
Do, 26.11. 4:50 90% -
Do, 26.11. 4:30 91% 20 km
Do, 26.11. 4:00 90% 19 km
Do, 26.11. 3:30 91% 18 km
Do, 26.11. 3:00 90% 16 km
Do, 26.11. 2:30 92% 15 km
Ortszeit Niederschlagsmenge Niederschlagsart
Do, 26.11. 1:00 0.0 l/m2 in 6 Std. -
Mi, 25.11. 19:00 0.0 l/m2 in 12 Std. -
Mi, 25.11. 13:00 0.0 l/m2 in 6 Std. -
Mi, 25.11. 7:00 0.0 l/m2 in 12 Std. -
Mi, 25.11. 1:00 0.0 l/m2 in 6 Std. -
Di, 24.11. 19:00 0.0 l/m2 in 12 Std. -
Di, 24.11. 13:00 0.0 l/m2 in 6 Std. -
Di, 24.11. 7:00 0.0 l/m2 in 12 Std. -
Ortszeit Niederschlagsmenge Niederschlagsart
Do, 26.11. 6:00 0.0 l/m2 in 1 Std. -
Do, 26.11. 5:30 0.0 l/m2 in 1 Std. -
Do, 26.11. 5:20 keine Meldung -
Do, 26.11. 5:10 keine Meldung -
Do, 26.11. 5:00 0.0 l/m2 in 1 Std. -
Do, 26.11. 4:50 keine Meldung -
Do, 26.11. 4:30 0.0 l/m2 in 1 Std. -
Do, 26.11. 4:00 0.0 l/m2 in 1 Std. -
Do, 26.11. 3:30 0.0 l/m2 in 1 Std. -
Do, 26.11. 3:00 0.0 l/m2 in 1 Std. -
Do, 26.11. 2:30 0.0 l/m2 in 1 Std. -
Ortszeit Stärke Spitze Richtung
km/h Bft. km/h Grad Sektor
Do, 26.11. 1:00 9 2 19 120° SO
Mi, 25.11. 19:00 2 1 13 130° SO
Mi, 25.11. 13:00 9 2 20 140° SO
Mi, 25.11. 7:00 7 2 14 140° SO
Mi, 25.11. 1:00 4 1 18 130° SO
Di, 24.11. 19:00 4 1 22 140° SO
Di, 24.11. 13:00 7 2 14 120° SO
Di, 24.11. 7:00 0 0 11 - -
Ortszeit Stärke Spitze Richtung
km/h Bft. km/h Grad Sektor
Do, 26.11. 6:00 13 3 22 130° SO
Do, 26.11. 5:30 15 3 20 140° SO
Do, 26.11. 5:20 15 3 - 140° SO
Do, 26.11. 5:10 14 3 - 130° SO
Do, 26.11. 5:00 11 2 18 130° SO
Do, 26.11. 4:50 11 2 - 130° SO
Do, 26.11. 4:30 13 3 19 140° SO
Do, 26.11. 4:00 13 3 22 130° SO
Do, 26.11. 3:30 14 3 22 140° SO
Do, 26.11. 3:00 14 3 18 130° SO
Do, 26.11. 2:30 9 2 15 130° SO
Ortszeit Untergrenze Bedeckung Gattung
total tief tief mittel hoch
Do, 26.11. 1:00 8400 m 6/8 0/8 - - -
Mi, 25.11. 19:00 - 0/8 0/8 - - -
Mi, 25.11. 13:00 - 0/8 0/8 - - -
Mi, 25.11. 7:00 30 m 3/8 2/8 - - -
Mi, 25.11. 1:00 9000 m 1/8 0/8 - - -
Di, 24.11. 19:00 - 0/8 0/8 - - -
Di, 24.11. 13:00 480 m 8/8 8/8 - - -
Di, 24.11. 7:00 <30 m 8/8 0/8 - - -
Ortszeit Bedeckungsgrad in Achtel und Wolkenuntergrenze
Do, 26.11. 6:00 8(3600m)
Do, 26.11. 5:30 3(3900m)
Do, 26.11. 5:20 3(3900m)
Do, 26.11. 5:10 keine Wolken
Do, 26.11. 5:00 keine Wolken
Do, 26.11. 4:50 keine Wolken
Do, 26.11. 4:30 4(6300m)
Do, 26.11. 4:00 8(6600m)
Do, 26.11. 3:30 7(6600m)
Do, 26.11. 3:00 4(6600m) 5(7200m) 5(8700m)
Do, 26.11. 2:30 7(6900m) 7(7500m) 7(8700m)
Ortszeit Luftdruck NN (hPa) Tendenz (hPa in 3 Std.)
Do, 26.11. 1:00 1024 + 0,6
Mi, 25.11. 19:00 1023 + 1,0
Mi, 25.11. 13:00 1022 - 0,8
Mi, 25.11. 7:00 1023 - 0,1
Mi, 25.11. 1:00 1023 - 0,6
Di, 24.11. 19:00 1024 - 0,4
Di, 24.11. 13:00 1026 - 1,7
Di, 24.11. 7:00 1028 - 0,9
Ortszeit Luftdruck NN (hPa) Tendenz (hPa in 3 Std.)
Do, 26.11. 6:00 1025 + 0,1
Do, 26.11. 5:30 1025 + 0,3
Do, 26.11. 5:20 1025 keine Meldung
Do, 26.11. 5:10 1025 keine Meldung
Do, 26.11. 5:00 1025 + 0,3
Do, 26.11. 4:50 1025 keine Meldung
Do, 26.11. 4:30 1025 + 0,3
Do, 26.11. 4:00 1024 + 0,2
Do, 26.11. 3:30 1024 + 0,2
Do, 26.11. 3:00 1024 + 0,4
Do, 26.11. 2:30 1024 + 0,4
Ortszeit Schneehöhe (cm)
Do, 26.11. 1:00 0
Mi, 25.11. 19:00 0
Mi, 25.11. 13:00 0
Mi, 25.11. 7:00 0
Mi, 25.11. 1:00 0
Di, 24.11. 19:00 0
Di, 24.11. 13:00 0
Di, 24.11. 7:00 0
Ortszeit Schneehöhe (cm)
Do, 26.11. 6:00 0
Do, 26.11. 5:30 0
Do, 26.11. 5:20 0
Do, 26.11. 5:10 0
Do, 26.11. 5:00 0
Do, 26.11. 4:50 0
Do, 26.11. 4:30 0
Do, 26.11. 4:00 0
Do, 26.11. 3:30 0
Do, 26.11. 3:00 0
Do, 26.11. 2:30 0
Link zu dieser Seite / Seite empfehlen

Das Wetter in ...